Time;durP1;ratioP1;P1;durP2;ratioP2;P2;SDS_P1;SDS_P2;PMS_P1;PMS_P2;Temp;Humidity;BMP_temperature;BMP_pressure;BME280_temperature;BME280_humidity;BME280_pressure;Samples;Min_cycle;Max_cycle;Signal;HPM_P1;HPM_P2
2023/08/22 00:08:17;;;;;;;8.30;5.30;;;;;;;17.69;84.43;99963.14;435306;1257;138804;-63
2023/08/22 00:18:23;;;;;;;5.10;4.70;;;;;;;17.66;84.87;99958.23;435225;1256;139335;-64
2023/08/22 00:28:29;;;;;;;7.20;5.30;;;;;;;17.61;85.03;99956.75;435126;1255;139361;-63
2023/08/22 00:38:35;;;;;;;5.30;4.80;;;;;;;17.57;85.30;99959.76;435157;1257;140739;-63
2023/08/22 00:48:43;;;;;;;5.40;4.90;;;;;;;17.46;85.63;99961.25;435059;1259;139131;-62
2023/08/22 00:58:50;;;;;;;11.90;5.20;;;;;;;17.38;86.31;99952.05;435159;1257;139939;-63
2023/08/22 01:09:05;;;;;;;6.20;4.60;;;;;;;17.26;86.10;99948.41;435518;1259;138884;-61
2023/08/22 01:19:14;;;;;;;5.80;4.50;;;;;;;17.11;86.72;99940.66;435513;1259;139091;-62
2023/08/22 01:29:25;;;;;;;5.20;4.70;;;;;;;17.00;87.70;99933.11;435191;1257;139969;-63
2023/08/22 01:39:33;;;;;;;5.10;4.20;;;;;;;16.96;88.64;99938.54;435254;1257;140071;-62
2023/08/22 01:49:40;;;;;;;3.80;3.50;;;;;;;16.92;88.64;99935.89;435239;1258;140768;-62
2023/08/22 01:59:48;;;;;;;4.50;3.60;;;;;;;16.85;89.03;99944.48;435735;1257;139723;-63
2023/08/22 02:09:56;;;;;;;4.40;3.90;;;;;;;16.78;89.13;99951.39;435549;1259;139949;-62
2023/08/22 02:20:02;;;;;;;6.30;4.30;;;;;;;16.71;89.32;99948.64;435543;1256;138817;-64
2023/08/22 02:30:11;;;;;;;7.10;3.30;;;;;;;16.65;89.49;99928.61;435570;1257;139622;-64
2023/08/22 02:40:17;;;;;;;10.80;4.90;;;;;;;16.55;88.78;99939.17;435685;1258;140690;-62
2023/08/22 02:50:24;;;;;;;8.40;4.50;;;;;;;16.46;89.65;99938.33;436236;1257;139217;-62
2023/08/22 03:00:30;;;;;;;4.70;3.70;;;;;;;16.51;90.14;99929.59;435494;1255;140626;-63
2023/08/22 03:10:36;;;;;;;7.00;3.80;;;;;;;16.53;90.00;99924.85;435367;1257;139373;-63
2023/08/22 03:20:41;;;;;;;5.70;3.90;;;;;;;16.42;89.83;99924.14;435275;1257;139322;-62
2023/08/22 03:30:47;;;;;;;4.10;3.80;;;;;;;16.31;89.52;99910.74;435267;1257;139486;-62
2023/08/22 03:40:54;;;;;;;4.40;3.80;;;;;;;16.18;89.67;99918.52;435570;1257;138571;-61
2023/08/22 03:51:00;;;;;;;4.60;3.60;;;;;;;16.07;89.90;99927.17;435305;1257;139054;-61
2023/08/22 04:01:06;;;;;;;5.80;3.90;;;;;;;16.11;90.73;99926.85;435143;1257;140544;-63
2023/08/22 04:11:12;;;;;;;5.80;3.50;;;;;;;16.31;90.56;99917.11;435500;1254;140453;-63
2023/08/22 04:21:18;;;;;;;6.20;4.10;;;;;;;16.58;90.45;99928.52;435660;1254;139319;-62
2023/08/22 04:31:24;;;;;;;8.70;3.90;;;;;;;16.89;89.93;99918.82;435176;1255;140442;-62
2023/08/22 04:41:30;;;;;;;9.20;5.90;;;;;;;17.18;89.55;99918.01;435283;1254;138833;-62
2023/08/22 04:51:36;;;;;;;9.30;4.70;;;;;;;17.59;89.38;99915.81;435204;1257;140808;-62
2023/08/22 05:01:42;;;;;;;5.00;4.10;;;;;;;18.11;88.34;99916.21;435011;1254;140035;-64
2023/08/22 05:11:49;;;;;;;7.80;4.20;;;;;;;18.76;85.91;99925.23;435071;1257;139244;-63
2023/08/22 05:21:55;;;;;;;5.40;2.70;;;;;;;22.01;88.62;99938.73;435199;1257;140573;-63
2023/08/22 05:32:01;;;;;;;7.40;2.20;;;;;;;28.45;74.27;99942.43;435179;1257;139378;-64
2023/08/22 05:42:08;;;;;;;6.90;2.00;;;;;;;32.32;60.20;99944.19;435028;1257;139923;-63
2023/08/22 05:52:15;;;;;;;10.60;2.90;;;;;;;36.04;51.34;99945.57;435183;1254;138730;-64
2023/08/22 06:02:21;;;;;;;4.60;2.10;;;;;;;37.44;43.01;99941.29;435342;1257;139134;-64
2023/08/22 06:12:27;;;;;;;2.70;1.60;;;;;;;37.90;40.19;99939.70;435482;1254;139376;-64
2023/08/22 06:22:33;;;;;;;7.40;1.80;;;;;;;41.97;37.42;99934.11;435441;1254;139227;-65
2023/08/22 06:32:39;;;;;;;3.10;1.30;;;;;;;45.66;32.15;99929.80;435282;1257;140276;-66
2023/08/22 06:42:45;;;;;;;3.40;1.20;;;;;;;47.94;28.33;99937.86;435613;1254;138181;-59
2023/08/22 06:52:51;;;;;;;6.60;1.60;;;;;;;50.07;25.59;99942.52;435110;1254;138320;-65
2023/08/22 07:02:57;;;;;;;7.70;2.00;;;;;;;51.15;22.62;99928.14;435303;1256;138307;-69
2023/08/22 07:13:04;;;;;;;2.20;1.40;;;;;;;47.99;22.37;99916.66;435631;1254;138535;-72
2023/08/22 07:23:09;;;;;;;2.50;1.70;;;;;;;50.08;21.62;99924.19;435339;1254;138776;-70
2023/08/22 07:33:15;;;;;;;7.60;2.80;;;;;;;51.32;19.93;99916.71;436793;1256;138585;-69
2023/08/22 07:43:21;;;;;;;7.00;2.50;;;;;;;53.12;19.06;99917.95;436390;1256;138854;-77
2023/08/22 07:53:27;;;;;;;2.90;2.70;;;;;;;54.65;17.66;99919.66;437550;1257;138149;-73
2023/08/22 08:03:32;;;;;;;;;;;;;;;55.52;16.71;99912.96;437708;1254;138595;-73
2023/08/22 08:13:38;;;;;;;2.10;1.90;;;;;;;55.67;16.17;99907.28;436851;1254;124746;-66
2023/08/22 08:23:44;;;;;;;4.40;2.20;;;;;;;55.15;15.91;99906.92;434864;1254;138977;-72
2023/08/22 08:33:50;;;;;;;2.00;0.90;;;;;;;51.35;15.98;99898.08;437907;1256;138093;-70
2023/08/22 08:43:57;;;;;;;6.10;1.60;;;;;;;45.27;18.13;99890.47;435144;1254;138367;-66
2023/08/22 08:54:05;;;;;;;5.00;1.90;;;;;;;41.63;20.51;99890.85;435088;1257;138593;-66
2023/08/22 09:04:10;;;;;;;1.70;1.10;;;;;;;39.35;22.61;99889.79;435648;1257;139498;-71
2023/08/22 09:14:20;;;;;;;4.10;1.00;;;;;;;38.54;23.94;99883.31;435418;1257;140076;-69
2023/08/22 09:24:28;;;;;;;4.90;2.00;;;;;;;37.67;24.83;99873.08;435784;1254;138189;-67
2023/08/22 09:34:34;;;;;;;3.00;1.30;;;;;;;36.51;25.78;99869.88;435682;1254;138569;-64
2023/08/22 09:44:41;;;;;;;4.00;1.70;;;;;;;35.63;27.06;99867.36;435586;1256;140537;-64
2023/08/22 09:54:47;;;;;;;7.20;1.30;;;;;;;35.43;28.11;99856.63;435415;1254;138801;-64
2023/08/22 10:04:54;;;;;;;7.40;2.30;;;;;;;34.55;28.61;99845.61;435187;1253;138906;-63
2023/08/22 10:15:05;;;;;;;1.90;1.20;;;;;;;33.43;29.61;99829.94;435364;1254;138457;-66
2023/08/22 10:25:11;;;;;;;5.30;2.40;;;;;;;32.40;31.13;99835.67;435854;1252;140266;-66
2023/08/22 10:35:28;;;;;;;3.80;1.70;;;;;;;32.03;32.20;99833.95;435329;1255;139394;-67
2023/08/22 10:45:52;;;;;;;3.90;1.60;;;;;;;31.31;32.90;99823.82;435349;1257;139261;-64
2023/08/22 10:56:16;;;;;;;2.80;1.50;;;;;;;30.60;34.32;99813.34;436673;1256;139081;-65
2023/08/22 11:06:24;;;;;;;6.60;1.90;;;;;;;30.01;35.13;99800.11;435267;1257;139449;-67
2023/08/22 11:16:30;;;;;;;2.90;1.80;;;;;;;29.66;36.23;99797.05;435416;1253;138702;-68
2023/08/22 11:26:36;;;;;;;3.40;2.30;;;;;;;29.27;37.15;99793.92;435381;1253;138278;-68
2023/08/22 11:36:44;;;;;;;4.00;2.50;;;;;;;29.17;37.67;99787.85;435196;1254;138226;-61
2023/08/22 11:46:54;;;;;;;3.50;2.30;;;;;;;28.98;38.43;99782.05;435556;1254;138350;-61
2023/08/22 11:57:02;;;;;;;3.90;2.70;;;;;;;28.75;38.94;99776.88;435213;1253;168564;-62
2023/08/22 12:07:07;;;;;;;4.70;3.40;;;;;;;28.50;39.20;99777.96;435407;1257;138443;-61
2023/08/22 12:17:14;;;;;;;4.80;3.40;;;;;;;28.31;39.91;99773.73;435536;1256;138754;-65
2023/08/22 12:27:20;;;;;;;3.00;2.30;;;;;;;28.24;40.18;99767.80;435238;1257;138334;-62
2023/08/22 12:37:26;;;;;;;4.20;2.20;;;;;;;28.24;40.64;99758.13;435052;1253;138354;-66
2023/08/22 12:47:31;;;;;;;6.40;3.00;;;;;;;28.13;40.66;99748.20;435202;1257;139828;-61
2023/08/22 12:57:38;;;;;;;4.00;2.80;;;;;;;28.28;41.03;99739.72;435078;1256;138208;-71
2023/08/22 13:07:44;;;;;;;4.40;2.30;;;;;;;28.65;41.04;99730.96;438019;1255;138830;-69
2023/08/22 13:17:53;;;;;;;4.00;2.80;;;;;;;28.97;40.72;99727.50;435046;1256;139956;-60
2023/08/22 13:27:59;;;;;;;2.30;2.10;;;;;;;29.13;40.64;99722.09;435213;1253;138210;-60
2023/08/22 13:38:06;;;;;;;2.60;2.00;;;;;;;28.95;40.43;99712.39;435132;1256;139743;-59
2023/08/22 13:48:12;;;;;;;3.70;2.20;;;;;;;28.74;40.55;99709.89;435252;1254;140633;-58
2023/08/22 13:58:18;;;;;;;2.50;2.00;;;;;;;28.73;40.72;99707.11;435416;1256;140077;-60
2023/08/22 14:08:24;;;;;;;4.40;3.10;;;;;;;28.82;40.72;99699.34;435247;1256;140259;-57
2023/08/22 14:18:30;;;;;;;7.50;2.60;;;;;;;28.62;40.87;99694.95;435152;1256;139995;-57
2023/08/22 14:28:36;;;;;;;3.60;2.50;;;;;;;28.35;40.86;99683.13;435381;1257;140456;-58
2023/08/22 14:38:42;;;;;;;7.80;2.80;;;;;;;27.98;41.58;99667.98;435351;1256;138703;-60
2023/08/22 14:48:50;;;;;;;4.00;2.20;;;;;;;27.74;42.23;99654.24;435572;1253;140029;-60
2023/08/22 14:58:57;;;;;;;2.90;2.60;;;;;;;27.50;42.72;99647.85;435444;1256;138650;-68
2023/08/22 15:09:04;;;;;;;2.80;2.30;;;;;;;27.25;43.52;99636.88;435699;1256;139097;-67
2023/08/22 15:19:11;;;;;;;;;;;;;;;27.15;43.94;99634.96;435522;1256;138460;-67
2023/08/22 15:29:17;;;;;;;2.80;2.50;;;;;;;27.10;44.35;99620.79;435781;1256;126309;-66
2023/08/22 15:39:23;;;;;;;4.30;2.40;;;;;;;27.00;44.52;99610.33;435449;1253;138470;-67
2023/08/22 15:49:29;;;;;;;4.10;2.90;;;;;;;26.76;45.16;99604.48;435177;1254;138529;-65
2023/08/22 15:59:35;;;;;;;2.70;2.10;;;;;;;26.55;45.84;99595.91;435510;1256;138494;-72
2023/08/22 16:09:40;;;;;;;4.60;2.80;;;;;;;26.40;46.18;99572.92;435030;1257;138370;-71
2023/08/22 16:19:46;;;;;;;2.20;1.80;;;;;;;26.16;46.59;99559.71;435296;1256;139331;-72
2023/08/22 16:29:55;;;;;;;3.20;2.00;;;;;;;25.92;47.28;99551.32;435880;1253;138357;-73
2023/08/22 16:40:03;;;;;;;4.50;2.50;;;;;;;25.68;47.92;99536.15;436445;1257;138394;-72
2023/08/22 16:50:10;;;;;;;8.10;3.10;;;;;;;25.50;48.54;99535.41;435705;1257;138392;-72
2023/08/22 17:00:17;;;;;;;3.70;2.70;;;;;;;25.33;49.03;99546.12;436266;1257;139669;-72
2023/08/22 17:10:24;;;;;;;3.70;3.30;;;;;;;25.13;49.62;99557.36;436046;1254;140796;-73
2023/08/22 17:20:29;;;;;;;5.60;3.70;;;;;;;24.96;50.34;99569.23;436288;1253;138278;-72
2023/08/22 17:30:36;;;;;;;5.50;3.30;;;;;;;24.78;50.91;99561.63;435602;1256;138502;-72
2023/08/22 17:40:43;;;;;;;5.40;2.90;;;;;;;24.56;51.57;99546.05;436466;1256;138683;-72
2023/08/22 17:50:51;;;;;;;5.90;3.80;;;;;;;24.34;52.41;99550.36;435320;1253;138403;-72
2023/08/22 18:00:57;;;;;;;5.40;3.00;;;;;;;24.14;53.64;99555.75;435992;1253;138876;-73
2023/08/22 18:11:03;;;;;;;6.60;2.60;;;;;;;23.85;55.07;99585.65;436145;1256;138823;-71
2023/08/22 18:21:10;;;;;;;3.70;3.40;;;;;;;23.65;56.76;99612.25;435846;1257;138293;-70
2023/08/22 18:31:27;;;;;;;8.60;4.10;;;;;;;23.43;59.38;99611.71;436334;1257;139575;-73
2023/08/22 18:41:33;;;;;;;6.40;4.10;;;;;;;23.18;62.18;99597.79;436192;1257;138959;-71
2023/08/22 18:51:39;;;;;;;6.50;4.70;;;;;;;22.85;64.22;99576.42;435630;1254;138850;-67
2023/08/22 19:01:45;;;;;;;5.60;4.60;;;;;;;22.58;65.37;99563.91;435778;1256;138962;-62
2023/08/22 19:11:51;;;;;;;6.20;4.20;;;;;;;22.42;66.12;99580.27;435403;1256;139675;-61
2023/08/22 19:21:56;;;;;;;4.20;3.80;;;;;;;22.31;66.55;99589.68;435542;1257;138858;-61
2023/08/22 19:32:03;;;;;;;4.60;4.20;;;;;;;22.19;67.80;99585.08;435454;1256;138302;-64
2023/08/22 19:42:26;;;;;;;5.90;5.30;;;;;;;22.05;69.57;99593.02;435310;1259;140397;-61
2023/08/22 19:52:32;;;;;;;10.70;8.20;;;;;;;21.94;71.11;99600.84;435259;1256;138558;-60
2023/08/22 20:02:39;;;;;;;12.40;8.30;;;;;;;21.84;71.78;99622.63;435597;1256;138797;-60
2023/08/22 20:12:46;;;;;;;5.80;3.20;;;;;;;21.68;72.48;99614.60;434934;1257;139001;-61
2023/08/22 20:22:51;;;;;;;4.50;3.40;;;;;;;21.32;70.93;99657.80;435334;1259;139835;-62
2023/08/22 20:32:57;;;;;;;5.70;2.60;;;;;;;20.91;69.72;99648.98;435458;1257;138435;-60
2023/08/22 20:43:06;;;;;;;4.60;2.30;;;;;;;20.59;68.30;99628.27;435132;1259;138387;-60
2023/08/22 20:53:12;;;;;;;6.40;2.80;;;;;;;20.31;68.06;99627.46;435495;1254;139063;-58
2023/08/22 21:03:18;;;;;;;3.90;2.70;;;;;;;20.05;68.01;99638.45;436012;1256;138238;-59
2023/08/22 21:13:24;;;;;;;5.30;2.10;;;;;;;19.82;68.16;99630.13;435363;1257;140120;-59
2023/08/22 21:23:30;;;;;;;3.90;2.80;;;;;;;19.59;68.80;99637.05;435341;1254;140180;-60
2023/08/22 21:33:36;;;;;;;4.80;2.60;;;;;;;19.46;68.98;99636.96;435605;1254;139009;-59
2023/08/22 21:43:42;;;;;;;5.60;2.40;;;;;;;19.39;69.05;99636.44;435283;1254;139885;-58
2023/08/22 21:53:49;;;;;;;3.80;2.30;;;;;;;19.21;69.28;99637.30;435112;1256;138436;-59
2023/08/22 22:03:56;;;;;;;5.50;2.80;;;;;;;19.13;69.51;99642.55;435375;1257;140191;-59
2023/08/22 22:14:02;;;;;;;3.40;2.90;;;;;;;19.07;69.72;99631.11;437259;1255;138813;-60
2023/08/22 22:24:08;;;;;;;4.50;3.00;;;;;;;18.95;70.09;99631.16;435155;1257;139002;-59
2023/08/22 22:34:14;;;;;;;3.90;2.60;;;;;;;18.77;70.35;99617.48;435211;1258;138141;-58
2023/08/22 22:44:21;;;;;;;3.80;3.40;;;;;;;18.71;70.57;99621.91;435358;1257;139614;-58
2023/08/22 22:54:27;;;;;;;2.70;2.50;;;;;;;18.73;70.73;99623.02;435326;1257;139037;-60
2023/08/22 23:04:32;;;;;;;6.70;2.80;;;;;;;18.62;70.90;99614.98;435505;1254;138639;-59
2023/08/22 23:14:38;;;;;;;3.70;2.40;;;;;;;18.48;71.65;99613.18;435530;1257;138698;-59
2023/08/22 23:24:44;;;;;;;3.70;3.20;;;;;;;18.46;72.67;99607.38;435424;1257;140390;-60
2023/08/22 23:34:50;;;;;;;3.10;2.60;;;;;;;18.46;73.48;99614.64;434846;1256;138791;-59
2023/08/22 23:44:56;;;;;;;4.60;2.50;;;;;;;18.50;74.39;99626.99;435371;1257;138563;-64
2023/08/22 23:55:02;;;;;;;3.10;2.70;;;;;;;18.66;75.07;99625.14;435251;1257;138918;-65
